createdAt,value
2023-02-20T00:01:03.280Z,3.10
2023-02-20T00:03:30.776Z,6.60
2023-02-20T00:05:58.057Z,5.60
2023-02-20T00:08:24.854Z,3.80
2023-02-20T00:10:56.248Z,4.90
2023-02-20T00:13:26.156Z,6.80
2023-02-20T00:15:54.804Z,4.50
2023-02-20T00:18:21.685Z,6.10
2023-02-20T00:20:49.725Z,6.60
2023-02-20T00:23:20.296Z,6.80
2023-02-20T00:25:47.049Z,7.80
2023-02-20T00:28:14.228Z,5.30
2023-02-20T00:30:40.875Z,3.20
2023-02-20T00:33:09.327Z,4.70
2023-02-20T00:35:38.320Z,4.40
2023-02-20T00:38:16.129Z,6.60
2023-02-20T00:40:43.837Z,6.60
2023-02-20T00:43:13.215Z,5.30
2023-02-20T00:45:39.830Z,4.90
2023-02-20T00:48:06.687Z,4.50
2023-02-20T00:50:33.417Z,3.40
2023-02-20T00:53:00.182Z,5.20
2023-02-20T00:55:27.206Z,4.80
2023-02-20T00:57:54.916Z,6.30
2023-02-20T01:00:28.784Z,6.00
2023-02-20T01:02:55.633Z,2.30
2023-02-20T01:05:23.342Z,5.40
2023-02-20T01:07:50.600Z,4.00
2023-02-20T01:10:17.443Z,3.70
2023-02-20T01:12:44.288Z,5.60
2023-02-20T01:15:14.221Z,4.40
2023-02-20T01:17:42.885Z,3.10
2023-02-20T01:20:10.493Z,3.80
2023-02-20T01:22:37.327Z,2.90
2023-02-20T01:25:04.994Z,6.10
2023-02-20T01:27:32.108Z,4.90
2023-02-20T01:29:59.955Z,3.50
2023-02-20T01:32:26.835Z,2.50
2023-02-20T01:34:54.116Z,2.90
2023-02-20T01:37:21.535Z,4.10
2023-02-20T01:39:48.971Z,3.40
2023-02-20T01:42:21.794Z,4.20
2023-02-20T01:44:48.821Z,4.50
2023-02-20T01:47:16.965Z,1.80
2023-02-20T01:49:45.842Z,6.20
2023-02-20T01:52:17.028Z,3.80
2023-02-20T01:54:45.900Z,2.70
2023-02-20T01:57:20.816Z,5.10
2023-02-20T01:59:47.754Z,5.10
2023-02-20T02:02:14.635Z,3.10
2023-02-20T02:04:41.709Z,3.50
2023-02-20T02:07:08.958Z,3.40
2023-02-20T02:09:55.312Z,3.80
2023-02-20T02:12:22.523Z,4.60
2023-02-20T02:14:50.032Z,3.90
2023-02-20T02:17:27.229Z,4.80
2023-02-20T02:20:27.919Z,2.90
2023-02-20T02:23:16.718Z,2.40
2023-02-20T02:25:59.744Z,4.10
2023-02-20T02:29:04.436Z,3.10
2023-02-20T02:32:10.749Z,3.50
2023-02-20T02:35:02.143Z,4.80
2023-02-20T02:37:53.464Z,3.00
2023-02-20T02:40:48.635Z,3.70
2023-02-20T02:43:18.025Z,3.40
2023-02-20T02:45:54.596Z,3.20
2023-02-20T02:48:24.937Z,3.20
2023-02-20T02:50:54.041Z,5.30
2023-02-20T02:53:20.976Z,6.50
2023-02-20T02:55:47.816Z,2.90
2023-02-20T02:58:15.260Z,3.30
2023-02-20T03:00:50.355Z,4.00
2023-02-20T03:03:27.835Z,2.70
2023-02-20T03:05:57.020Z,2.40
2023-02-20T03:08:31.075Z,2.50
2023-02-20T03:11:04.971Z,2.30
2023-02-20T03:13:54.470Z,3.50
2023-02-20T03:16:27.445Z,1.60
2023-02-20T03:18:55.244Z,3.70
2023-02-20T03:21:22.127Z,4.10
2023-02-20T03:23:56.982Z,3.90
2023-02-20T03:26:28.293Z,2.40
2023-02-20T03:29:05.681Z,2.10
2023-02-20T03:32:16.369Z,3.20
2023-02-20T03:35:01.870Z,2.40
2023-02-20T03:37:47.933Z,2.60
2023-02-20T03:40:33.601Z,2.30
2023-02-20T03:43:23.044Z,4.30
2023-02-20T03:45:50.772Z,2.30
2023-02-20T03:48:27.770Z,2.80
2023-02-20T03:50:56.731Z,3.80
2023-02-20T03:53:24.440Z,4.40
2023-02-20T03:55:51.355Z,2.40
2023-02-20T03:58:20.273Z,2.90
2023-02-20T04:00:47.099Z,2.00
2023-02-20T04:03:20.461Z,4.00
2023-02-20T04:05:52.063Z,3.30
2023-02-20T04:08:44.075Z,4.00
2023-02-20T04:11:28.430Z,2.60
2023-02-20T04:13:56.386Z,3.50
2023-02-20T04:16:23.781Z,3.80
2023-02-20T04:18:55.139Z,2.70
2023-02-20T04:21:51.640Z,3.00
2023-02-20T04:24:32.716Z,3.50
2023-02-20T04:26:59.524Z,3.40
2023-02-20T04:29:26.738Z,2.90
2023-02-20T04:31:54.646Z,3.90
2023-02-20T04:34:22.623Z,4.20
2023-02-20T04:36:51.027Z,5.70
2023-02-20T04:39:18.180Z,3.00
2023-02-20T04:41:45.015Z,4.10
2023-02-20T04:44:30.739Z,3.40
2023-02-20T04:46:58.423Z,4.60
2023-02-20T04:49:25.470Z,4.90
2023-02-20T04:51:56.765Z,7.20
2023-02-20T04:54:23.894Z,4.90
2023-02-20T04:56:55.196Z,5.70
2023-02-20T04:59:22.930Z,4.40
2023-02-20T05:01:51.430Z,4.10
2023-02-20T05:04:19.328Z,3.80
2023-02-20T05:06:48.547Z,4.90
2023-02-20T05:09:15.336Z,3.40
2023-02-20T05:11:42.260Z,4.40
2023-02-20T05:14:08.989Z,6.10
2023-02-20T05:16:39.446Z,4.50
2023-02-20T05:19:07.065Z,4.00
2023-02-20T05:21:53.390Z,3.00
2023-02-20T05:24:20.658Z,3.50
2023-02-20T05:26:47.716Z,4.60
2023-02-20T05:29:14.479Z,5.20
2023-02-20T05:31:41.692Z,4.00
2023-02-20T05:34:08.916Z,6.30
2023-02-20T05:36:36.942Z,3.20
2023-02-20T05:39:05.724Z,3.80
2023-02-20T05:41:33.258Z,6.40
2023-02-20T05:44:00.320Z,4.50
2023-02-20T05:46:27.369Z,3.40
2023-02-20T05:48:54.530Z,3.10
2023-02-20T05:51:26.391Z,5.50
2023-02-20T05:53:53.256Z,2.90
2023-02-20T05:56:19.979Z,3.80
2023-02-20T05:58:47.331Z,2.30
2023-02-20T06:01:25.341Z,2.90
2023-02-20T06:03:52.361Z,5.00
2023-02-20T06:06:19.377Z,3.20
2023-02-20T06:08:46.289Z,3.70
2023-02-20T06:11:17.310Z,2.90
2023-02-20T06:13:44.788Z,3.80
2023-02-20T06:16:12.089Z,2.20
2023-02-20T06:18:41.166Z,5.60
2023-02-20T06:21:09.333Z,5.00
2023-02-20T06:23:45.361Z,3.20
2023-02-20T06:26:12.741Z,3.10
2023-02-20T06:28:40.198Z,4.00
2023-02-20T06:31:07.362Z,4.50
2023-02-20T06:33:34.349Z,3.00
2023-02-20T06:36:01.186Z,4.20
2023-02-20T06:38:27.985Z,4.30
2023-02-20T06:40:55.023Z,3.20
2023-02-20T06:43:21.663Z,3.20
2023-02-20T06:45:48.404Z,3.90
2023-02-20T06:48:16.910Z,3.10
2023-02-20T06:50:44.057Z,2.90
2023-02-20T06:53:12.013Z,3.10
2023-02-20T06:55:38.756Z,1.90
2023-02-20T06:58:05.648Z,2.60
2023-02-20T07:00:32.580Z,3.50
2023-02-20T07:02:59.491Z,4.30
2023-02-20T07:05:26.275Z,4.10
2023-02-20T07:07:53.880Z,2.80
2023-02-20T07:10:20.996Z,4.10
2023-02-20T07:12:50.487Z,4.40
2023-02-20T07:15:19.645Z,3.90
2023-02-20T07:17:46.598Z,3.10
2023-02-20T07:20:16.300Z,2.70
2023-02-20T07:22:53.910Z,4.20
2023-02-20T07:25:20.843Z,2.70
2023-02-20T07:27:47.694Z,3.00
2023-02-20T07:30:17.944Z,5.20
2023-02-20T07:32:44.862Z,4.80
2023-02-20T07:35:11.508Z,5.40
2023-02-20T07:37:39.506Z,2.60
2023-02-20T07:40:06.900Z,5.10
2023-02-20T07:42:36.129Z,5.50
2023-02-20T07:45:22.691Z,5.20
2023-02-20T07:47:50.200Z,5.20
2023-02-20T07:50:17.138Z,3.70
2023-02-20T07:52:45.448Z,9.00
2023-02-20T07:55:14.207Z,3.50
2023-02-20T07:57:40.891Z,6.20
2023-02-20T08:00:08.923Z,3.00
2023-02-20T08:02:41.895Z,4.70
2023-02-20T08:05:09.418Z,3.00
2023-02-20T08:07:36.477Z,8.10
2023-02-20T08:12:23.335Z,3.10
2023-02-20T08:14:54.736Z,3.70
2023-02-20T08:17:23.002Z,3.50
2023-02-20T08:19:51.461Z,3.70
2023-02-20T08:22:19.543Z,3.90
2023-02-20T08:24:48.190Z,3.70
2023-02-20T08:27:16.618Z,3.80
2023-02-20T08:29:46.211Z,4.80
2023-02-20T08:32:15.486Z,2.80
2023-02-20T08:34:45.560Z,5.60
2023-02-20T08:37:13.816Z,2.50
2023-02-20T08:39:42.099Z,6.10
2023-02-20T08:42:10.154Z,4.00
2023-02-20T08:44:40.846Z,2.60
2023-02-20T08:47:09.027Z,2.50
2023-02-20T08:49:38.269Z,5.40
2023-02-20T08:52:06.748Z,6.70
2023-02-20T08:54:34.961Z,2.60
2023-02-20T08:57:03.114Z,4.50
2023-02-20T08:59:32.664Z,4.20
2023-02-20T09:02:00.897Z,1.90
2023-02-20T09:11:26.270Z,3.00
2023-02-20T09:13:53.606Z,2.90
2023-02-20T09:16:21.558Z,3.30
2023-02-20T09:18:48.440Z,3.10
2023-02-20T09:21:17.107Z,1.90
2023-02-20T09:23:43.691Z,2.40
2023-02-20T09:26:10.600Z,2.90
2023-02-20T09:28:39.727Z,3.60
2023-02-20T09:31:06.942Z,2.80
2023-02-20T09:33:34.098Z,2.60
2023-02-20T09:36:01.048Z,1.90
2023-02-20T09:38:29.008Z,3.00
2023-02-20T09:40:57.785Z,4.30
2023-02-20T09:43:41.439Z,1.80
2023-02-20T09:46:16.273Z,3.50
2023-02-20T09:49:05.893Z,3.00
2023-02-20T09:51:37.760Z,1.70
2023-02-20T09:54:38.661Z,5.00
2023-02-20T09:57:09.936Z,2.60
2023-02-20T09:59:41.979Z,3.70
2023-02-20T10:02:14.676Z,3.80
2023-02-20T10:05:00.692Z,3.00
2023-02-20T10:07:36.504Z,4.40
2023-02-20T10:10:24.115Z,3.20
2023-02-20T10:13:00.472Z,3.30
2023-02-20T10:15:51.314Z,3.30
2023-02-20T10:18:30.575Z,3.90
2023-02-20T10:21:21.856Z,3.20
2023-02-20T10:24:03.745Z,3.80
2023-02-20T10:26:34.363Z,2.70
2023-02-20T10:29:22.256Z,4.30
2023-02-20T10:31:57.778Z,6.10
2023-02-20T10:34:42.693Z,4.10
2023-02-20T10:37:15.493Z,3.30
2023-02-20T10:39:47.920Z,5.60
2023-02-20T10:42:32.065Z,3.40
2023-02-20T10:48:08.341Z,4.20
2023-02-20T10:50:46.306Z,3.10
2023-02-20T10:53:52.033Z,5.80
2023-02-20T10:56:23.783Z,4.40
2023-02-20T10:59:39.144Z,4.90
2023-02-20T11:02:14.012Z,7.00
2023-02-20T11:07:10.018Z,3.60
2023-02-20T11:09:37.164Z,5.50
2023-02-20T11:12:08.016Z,3.90
2023-02-20T11:14:46.735Z,6.10
2023-02-20T11:17:15.524Z,9.60
2023-02-20T11:19:44.849Z,3.70
2023-02-20T11:22:12.787Z,4.40
2023-02-20T11:24:44.597Z,3.70
2023-02-20T11:27:16.464Z,4.10
2023-02-20T11:30:00.896Z,3.00
2023-02-20T11:32:35.953Z,4.90
2023-02-20T11:35:18.224Z,3.80
2023-02-20T11:37:54.937Z,8.10
2023-02-20T11:40:28.376Z,4.40
2023-02-20T11:42:55.972Z,3.70
2023-02-20T11:45:26.566Z,6.90
2023-02-20T11:48:07.137Z,5.30
2023-02-20T11:50:44.859Z,3.60
2023-02-20T11:53:22.858Z,6.10
2023-02-20T11:56:05.627Z,3.50
2023-02-20T11:58:33.355Z,4.90
2023-02-20T12:01:01.307Z,4.10
2023-02-20T12:03:30.565Z,4.10
2023-02-20T12:06:22.626Z,2.60
2023-02-20T12:08:56.080Z,4.70
2023-02-20T12:11:25.664Z,3.20
2023-02-20T12:13:54.841Z,2.90
2023-02-20T12:16:32.051Z,3.40
2023-02-20T12:19:04.686Z,6.20
2023-02-20T12:21:41.596Z,4.90
2023-02-20T12:24:29.742Z,5.40
2023-02-20T12:26:58.672Z,7.50
2023-02-20T12:29:50.497Z,5.80
2023-02-20T12:32:27.139Z,6.00
2023-02-20T12:35:25.014Z,7.60
2023-02-20T12:37:58.203Z,5.60
2023-02-20T12:40:33.149Z,5.40
2023-02-20T12:43:02.951Z,6.20
2023-02-20T12:46:15.381Z,4.60
2023-02-20T12:49:17.950Z,5.10
2023-02-20T12:52:21.264Z,4.70
2023-02-20T12:55:00.179Z,8.00
2023-02-20T12:57:58.661Z,4.60
2023-02-20T13:00:36.606Z,6.00
2023-02-20T13:03:11.553Z,4.90
2023-02-20T13:05:44.960Z,5.20
2023-02-20T13:08:34.316Z,3.50
2023-02-20T13:11:10.285Z,3.80
2023-02-20T13:14:00.827Z,5.70
2023-02-20T13:16:44.793Z,5.50
2023-02-20T13:19:29.121Z,7.10
2023-02-20T13:21:58.784Z,4.00
2023-02-20T13:24:28.060Z,7.10
2023-02-20T13:26:59.191Z,6.30
2023-02-20T13:29:27.722Z,6.10
2023-02-20T13:32:01.874Z,5.50
2023-02-20T13:34:34.865Z,5.90
2023-02-20T13:37:01.767Z,5.70
2023-02-20T13:39:32.558Z,4.50
2023-02-20T13:42:03.985Z,4.70
2023-02-20T13:44:32.485Z,7.60
2023-02-20T13:47:22.244Z,4.00
2023-02-20T13:49:56.699Z,8.60
2023-02-20T13:52:34.800Z,5.50
2023-02-20T13:55:10.062Z,5.10
2023-02-20T13:57:44.109Z,7.40
2023-02-20T14:00:30.672Z,4.30
2023-02-20T14:02:57.752Z,4.20
2023-02-20T14:05:28.789Z,5.00
2023-02-20T14:07:57.871Z,5.00
2023-02-20T14:10:33.194Z,7.70
2023-02-20T14:13:05.363Z,6.80
2023-02-20T14:15:34.009Z,5.30
2023-02-20T14:18:00.804Z,4.30
2023-02-20T14:20:35.393Z,5.30
2023-02-20T14:23:14.653Z,5.40
2023-02-20T14:25:49.258Z,4.90
2023-02-20T14:28:22.526Z,5.70
2023-02-20T14:31:17.796Z,5.90
2023-02-20T14:33:45.011Z,7.80
2023-02-20T14:36:38.192Z,6.80
2023-02-20T14:39:14.133Z,6.20
2023-02-20T14:41:53.877Z,7.40
2023-02-20T14:44:20.885Z,9.10
2023-02-20T14:47:09.927Z,7.90
2023-02-20T14:49:38.398Z,6.50
2023-02-20T14:52:20.666Z,10.20
2023-02-20T14:55:06.594Z,10.90
2023-02-20T14:57:34.417Z,9.60
2023-02-20T15:00:19.933Z,11.80
2023-02-20T15:02:48.539Z,10.50
2023-02-20T15:05:19.184Z,8.20
2023-02-20T15:07:45.912Z,8.20
2023-02-20T15:10:33.649Z,7.30
2023-02-20T15:13:30.800Z,8.90
2023-02-20T15:16:17.283Z,10.20
2023-02-20T15:18:45.421Z,6.10
2023-02-20T15:21:13.151Z,13.80
2023-02-20T15:23:44.539Z,9.20
2023-02-20T15:26:32.397Z,7.20
2023-02-20T15:29:22.013Z,8.00
2023-02-20T15:32:00.097Z,9.30
2023-02-20T15:34:33.723Z,8.20
2023-02-20T15:39:28.680Z,7.60
2023-02-20T15:44:27.446Z,9.70
2023-02-20T15:46:55.578Z,13.40
2023-02-20T15:49:22.518Z,13.90
2023-02-20T15:51:49.481Z,13.90
2023-02-20T15:54:17.903Z,11.00
2023-02-20T15:56:46.767Z,7.10
2023-02-20T15:59:13.603Z,9.70
2023-02-20T16:01:40.929Z,8.50
2023-02-20T16:04:08.336Z,10.90
2023-02-20T16:06:35.410Z,11.80
2023-02-20T16:09:03.783Z,6.00
2023-02-20T16:11:36.730Z,10.10
2023-02-20T16:14:04.118Z,6.20
2023-02-20T16:16:37.015Z,8.50
2023-02-20T16:19:06.407Z,8.90
2023-02-20T16:21:33.245Z,8.20
2023-02-20T16:24:00.709Z,10.80
2023-02-20T16:26:33.059Z,8.50
2023-02-20T16:29:03.017Z,8.70
2023-02-20T16:31:52.665Z,10.00
2023-02-20T16:34:24.112Z,16.70
2023-02-20T16:36:51.461Z,11.20
2023-02-20T16:39:26.197Z,9.20
2023-02-20T16:41:55.421Z,11.10
2023-02-20T16:44:40.361Z,8.10
2023-02-20T16:47:18.902Z,11.40
2023-02-20T16:49:48.426Z,8.50
2023-02-20T16:52:21.541Z,8.60
2023-02-20T16:54:49.598Z,12.90
2023-02-20T16:57:17.131Z,8.60
2023-02-20T16:59:43.936Z,8.90
2023-02-20T17:02:15.884Z,8.40
2023-02-20T17:04:44.242Z,6.30
2023-02-20T17:07:11.699Z,6.70
2023-02-20T17:09:43.870Z,10.60
2023-02-20T17:12:13.890Z,5.90
2023-02-20T17:14:40.714Z,5.80
2023-02-20T17:17:10.448Z,6.80
2023-02-20T17:19:39.527Z,8.00
2023-02-20T17:22:06.874Z,9.20
2023-02-20T17:24:35.223Z,5.20
2023-02-20T17:27:02.439Z,5.80
2023-02-20T17:29:29.456Z,7.60
2023-02-20T17:31:56.386Z,6.70
2023-02-20T17:34:23.354Z,6.50
2023-02-20T17:36:50.673Z,12.00
2023-02-20T17:39:20.976Z,8.60
2023-02-20T17:41:48.790Z,8.60
2023-02-20T17:44:17.018Z,7.60
2023-02-20T17:46:43.878Z,6.90
2023-02-20T17:49:11.293Z,8.60
2023-02-20T17:51:40.136Z,7.20
2023-02-20T17:54:07.143Z,7.00
2023-02-20T17:56:38.607Z,7.20
2023-02-20T17:59:05.512Z,5.30
2023-02-20T18:01:32.415Z,6.70
2023-02-20T18:03:59.727Z,6.50
2023-02-20T18:06:27.067Z,7.40
2023-02-20T18:08:55.433Z,6.60
2023-02-20T18:11:22.410Z,10.90
2023-02-20T18:13:49.235Z,7.70
2023-02-20T18:16:17.024Z,9.30
2023-02-20T18:18:47.781Z,7.40
2023-02-20T18:21:25.976Z,7.20
2023-02-20T18:23:55.269Z,10.90
2023-02-20T18:26:22.611Z,8.00
2023-02-20T18:28:49.491Z,8.00
2023-02-20T18:31:17.782Z,7.50
2023-02-20T18:33:45.508Z,5.80
2023-02-20T18:36:12.771Z,6.90
2023-02-20T18:38:40.312Z,6.60
2023-02-20T18:41:11.730Z,5.00
2023-02-20T18:43:42.809Z,7.30
2023-02-20T18:46:13.426Z,5.10
2023-02-20T18:48:40.898Z,5.40
2023-02-20T18:51:09.178Z,6.80
2023-02-20T18:53:36.538Z,4.00
2023-02-20T18:56:04.505Z,6.00
2023-02-20T18:58:32.557Z,7.30
2023-02-20T19:01:01.330Z,13.30
2023-02-20T19:03:30.827Z,9.00
2023-02-20T19:05:59.659Z,6.50
2023-02-20T19:08:26.919Z,5.10
2023-02-20T19:10:53.993Z,5.00
2023-02-20T19:13:20.807Z,4.80
2023-02-20T19:15:48.091Z,2.90
2023-02-20T19:18:17.468Z,4.70
2023-02-20T19:20:44.523Z,3.30
2023-02-20T19:23:12.942Z,5.00
2023-02-20T19:25:41.286Z,14.90
2023-02-20T19:28:10.990Z,6.00
2023-02-20T19:30:39.438Z,4.10
2023-02-20T19:33:06.748Z,3.60
2023-02-20T19:35:33.891Z,4.00
2023-02-20T19:38:00.934Z,7.80
2023-02-20T19:40:28.513Z,7.40
2023-02-20T19:42:56.282Z,6.00
2023-02-20T19:46:39.166Z,4.00
2023-02-20T19:49:09.479Z,5.90
2023-02-20T19:51:36.393Z,3.00
2023-02-20T19:54:04.736Z,6.50
2023-02-20T19:56:32.076Z,4.40
2023-02-20T19:58:58.934Z,2.40
2023-02-20T20:01:25.678Z,4.80
2023-02-20T20:03:52.933Z,4.50
2023-02-20T20:06:24.646Z,2.50
2023-02-20T20:09:10.447Z,2.20
2023-02-20T20:11:40.594Z,3.20
2023-02-20T20:14:07.624Z,3.50
2023-02-20T20:16:37.285Z,5.20
2023-02-20T20:19:04.775Z,5.20
2023-02-20T20:21:31.998Z,5.30
2023-02-20T20:23:59.916Z,7.90
2023-02-20T20:26:28.193Z,8.30
2023-02-20T20:30:22.466Z,4.30
2023-02-20T20:32:51.758Z,3.70
2023-02-20T20:35:21.311Z,2.40
2023-02-20T20:37:49.337Z,2.50
2023-02-20T20:40:17.777Z,2.80
2023-02-20T20:42:46.524Z,2.50
2023-02-20T20:45:14.948Z,4.40
2023-02-20T20:47:44.338Z,3.40
2023-02-20T20:50:15.150Z,2.70
2023-02-20T20:52:44.277Z,3.30
2023-02-20T20:55:12.337Z,4.30
2023-02-20T20:57:42.163Z,5.50
2023-02-20T21:00:25.743Z,3.80
2023-02-20T21:02:54.425Z,2.60
2023-02-20T21:05:24.307Z,2.70
2023-02-20T21:07:52.379Z,2.30
2023-02-20T21:10:21.269Z,3.40
2023-02-20T21:12:49.344Z,4.20
2023-02-20T21:15:20.429Z,3.40
2023-02-20T21:17:48.767Z,2.60
2023-02-20T21:20:23.033Z,2.60
2023-02-20T21:22:51.364Z,3.40
2023-02-20T21:25:21.774Z,5.20
2023-02-20T21:27:50.466Z,4.60
2023-02-20T21:30:19.189Z,2.50
2023-02-20T21:32:48.724Z,2.40
2023-02-20T21:35:17.966Z,2.70
2023-02-20T21:37:47.077Z,3.30
2023-02-20T21:40:17.007Z,3.10
2023-02-20T21:43:04.522Z,5.60
2023-02-20T21:45:33.257Z,6.00
2023-02-20T21:48:01.524Z,5.30
2023-02-20T21:50:29.957Z,6.10
2023-02-20T21:52:58.996Z,5.10
2023-02-20T21:55:27.440Z,5.00
2023-02-20T21:57:55.582Z,3.30
2023-02-20T22:00:23.893Z,4.50
2023-02-20T22:02:52.142Z,3.60
2023-02-20T22:05:20.896Z,3.60
2023-02-20T22:08:08.000Z,4.60
2023-02-20T22:10:55.819Z,3.10
2023-02-20T22:13:43.879Z,3.50
2023-02-20T22:16:30.687Z,3.70
2023-02-20T22:19:17.886Z,3.40
2023-02-20T22:22:06.764Z,2.50
2023-02-20T22:24:54.381Z,3.60
2023-02-20T22:27:43.661Z,3.80
2023-02-20T22:30:31.014Z,4.60
2023-02-20T22:33:21.180Z,3.90
2023-02-20T22:36:08.504Z,2.60
2023-02-20T22:38:56.928Z,4.00
2023-02-20T22:41:43.991Z,2.80
2023-02-20T22:44:30.875Z,3.80
2023-02-20T22:47:17.725Z,4.20
2023-02-20T22:50:05.336Z,5.10
2023-02-20T22:52:52.616Z,3.20
2023-02-20T22:55:39.431Z,4.50
2023-02-20T22:58:26.586Z,3.50
2023-02-20T23:01:14.130Z,3.40
2023-02-20T23:04:01.532Z,3.40
2023-02-20T23:06:48.561Z,3.00
2023-02-20T23:09:35.650Z,3.60
2023-02-20T23:12:25.227Z,3.10
2023-02-20T23:15:12.427Z,5.80
2023-02-20T23:18:02.374Z,5.40
2023-02-20T23:20:50.848Z,4.90
2023-02-20T23:23:40.399Z,3.10
2023-02-20T23:26:27.442Z,3.30
2023-02-20T23:29:14.293Z,5.60
2023-02-20T23:32:02.579Z,3.40
2023-02-20T23:34:49.928Z,4.50
2023-02-20T23:37:37.008Z,4.10
2023-02-20T23:40:36.071Z,4.50
2023-02-20T23:43:24.801Z,4.20
2023-02-20T23:46:12.653Z,4.30
2023-02-20T23:48:59.410Z,5.20
2023-02-20T23:51:46.430Z,5.30
2023-02-20T23:54:33.186Z,5.00
2023-02-20T23:57:20.057Z,4.40
